sensor_id;sensor_type;location;lat;lon;timestamp;temperature;humidity
51035;DHT22;37062;52.546;13.230;2023-05-15T00:00:58;15.60;99.90
51035;DHT22;37062;52.546;13.230;2023-05-15T00:03:27;15.50;99.90
51035;DHT22;37062;52.546;13.230;2023-05-15T00:05:56;15.50;99.90
51035;DHT22;37062;52.546;13.230;2023-05-15T00:08:24;15.50;99.90
51035;DHT22;37062;52.546;13.230;2023-05-15T00:10:52;15.40;99.90
51035;DHT22;37062;52.546;13.230;2023-05-15T00:13:27;15.40;99.90
51035;DHT22;37062;52.546;13.230;2023-05-15T00:15:56;15.30;99.90
51035;DHT22;37062;52.546;13.230;2023-05-15T00:18:24;15.30;99.90
51035;DHT22;37062;52.546;13.230;2023-05-15T00:20:54;15.30;99.90
51035;DHT22;37062;52.546;13.230;2023-05-15T00:23:22;15.30;99.90
51035;DHT22;37062;52.546;13.230;2023-05-15T00:25:51;15.30;99.90
51035;DHT22;37062;52.546;13.230;2023-05-15T00:28:19;15.30;99.90
51035;DHT22;37062;52.546;13.230;2023-05-15T00:30:47;15.20;99.90
51035;DHT22;37062;52.546;13.230;2023-05-15T00:33:16;15.20;99.90
51035;DHT22;37062;52.546;13.230;2023-05-15T00:35:44;15.20;99.90
51035;DHT22;37062;52.546;13.230;2023-05-15T00:38:14;15.20;99.90
51035;DHT22;37062;52.546;13.230;2023-05-15T00:40:42;15.10;99.90
51035;DHT22;37062;52.546;13.230;2023-05-15T00:43:11;15.10;99.90
51035;DHT22;37062;52.546;13.230;2023-05-15T00:45:41;15.10;99.90
51035;DHT22;37062;52.546;13.230;2023-05-15T00:48:10;15.10;99.90
51035;DHT22;37062;52.546;13.230;2023-05-15T00:50:39;15.10;99.90
51035;DHT22;37062;52.546;13.230;2023-05-15T00:53:09;15.00;99.90
51035;DHT22;37062;52.546;13.230;2023-05-15T00:55:39;15.00;99.90
51035;DHT22;37062;52.546;13.230;2023-05-15T00:58:09;15.00;99.90
51035;DHT22;37062;52.546;13.230;2023-05-15T01:00:38;14.90;99.90
51035;DHT22;37062;52.546;13.230;2023-05-15T01:03:06;14.90;99.90
51035;DHT22;37062;52.546;13.230;2023-05-15T01:05:35;14.90;99.90
51035;DHT22;37062;52.546;13.230;2023-05-15T01:08:12;14.80;99.90
51035;DHT22;37062;52.546;13.230;2023-05-15T01:10:46;14.80;99.90
51035;DHT22;37062;52.546;13.230;2023-05-15T01:13:15;14.80;99.90
51035;DHT22;37062;52.546;13.230;2023-05-15T01:15:43;14.70;99.90
51035;DHT22;37062;52.546;13.230;2023-05-15T01:18:11;14.70;99.90
51035;DHT22;37062;52.546;13.230;2023-05-15T01:20:49;14.70;99.90
51035;DHT22;37062;52.546;13.230;2023-05-15T01:23:37;14.60;99.90
51035;DHT22;37062;52.546;13.230;2023-05-15T01:29:36;14.50;99.90
51035;DHT22;37062;52.546;13.230;2023-05-15T01:32:10;14.50;99.90
51035;DHT22;37062;52.546;13.230;2023-05-15T01:34:43;14.50;99.90
51035;DHT22;37062;52.546;13.230;2023-05-15T01:37:16;14.50;99.90
51035;DHT22;37062;52.546;13.230;2023-05-15T01:39:46;14.50;99.90
51035;DHT22;37062;52.546;13.230;2023-05-15T01:42:18;14.50;99.90
51035;DHT22;37062;52.546;13.230;2023-05-15T01:44:52;14.50;99.90
51035;DHT22;37062;52.546;13.230;2023-05-15T01:47:29;14.50;99.90
51035;DHT22;37062;52.546;13.230;2023-05-15T01:50:01;14.50;99.90
51035;DHT22;37062;52.546;13.230;2023-05-15T01:52:33;14.40;99.90
51035;DHT22;37062;52.546;13.230;2023-05-15T01:55:02;14.40;99.90
51035;DHT22;37062;52.546;13.230;2023-05-15T01:57:33;14.30;99.90
51035;DHT22;37062;52.546;13.230;2023-05-15T02:00:04;14.30;99.90
51035;DHT22;37062;52.546;13.230;2023-05-15T02:02:40;14.30;99.90
51035;DHT22;37062;52.546;13.230;2023-05-15T02:05:10;14.30;99.90
51035;DHT22;37062;52.546;13.230;2023-05-15T02:07:40;14.20;99.90
51035;DHT22;37062;52.546;13.230;2023-05-15T02:10:09;14.20;99.90
51035;DHT22;37062;52.546;13.230;2023-05-15T02:12:39;14.20;99.90
51035;DHT22;37062;52.546;13.230;2023-05-15T02:15:10;14.20;99.90
51035;DHT22;37062;52.546;13.230;2023-05-15T02:17:39;14.20;99.90
51035;DHT22;37062;52.546;13.230;2023-05-15T02:20:08;14.20;99.90
51035;DHT22;37062;52.546;13.230;2023-05-15T02:22:37;14.10;99.90
51035;DHT22;37062;52.546;13.230;2023-05-15T02:25:06;14.10;99.90
51035;DHT22;37062;52.546;13.230;2023-05-15T02:27:40;14.10;99.90
51035;DHT22;37062;52.546;13.230;2023-05-15T02:30:22;14.00;99.90
51035;DHT22;37062;52.546;13.230;2023-05-15T02:33:03;14.00;99.90
51035;DHT22;37062;52.546;13.230;2023-05-15T02:35:36;14.00;99.90
51035;DHT22;37062;52.546;13.230;2023-05-15T02:38:11;14.00;99.90
51035;DHT22;37062;52.546;13.230;2023-05-15T02:40:43;14.00;99.90
51035;DHT22;37062;52.546;13.230;2023-05-15T02:43:13;14.00;99.90
51035;DHT22;37062;52.546;13.230;2023-05-15T02:45:44;14.00;99.90
51035;DHT22;37062;52.546;13.230;2023-05-15T02:48:13;14.00;99.90
51035;DHT22;37062;52.546;13.230;2023-05-15T02:50:43;13.90;99.90
51035;DHT22;37062;52.546;13.230;2023-05-15T02:53:11;13.90;99.90
51035;DHT22;37062;52.546;13.230;2023-05-15T02:55:41;13.90;99.90
51035;DHT22;37062;52.546;13.230;2023-05-15T02:58:09;13.80;99.90
51035;DHT22;37062;52.546;13.230;2023-05-15T03:00:37;13.80;99.90
51035;DHT22;37062;52.546;13.230;2023-05-15T03:03:07;13.80;99.90
51035;DHT22;37062;52.546;13.230;2023-05-15T03:05:35;13.80;99.90
51035;DHT22;37062;52.546;13.230;2023-05-15T03:08:04;13.80;99.90
51035;DHT22;37062;52.546;13.230;2023-05-15T03:10:32;13.80;99.90
51035;DHT22;37062;52.546;13.230;2023-05-15T03:13:01;13.80;99.90
51035;DHT22;37062;52.546;13.230;2023-05-15T03:15:29;13.80;99.90
51035;DHT22;37062;52.546;13.230;2023-05-15T03:17:57;13.80;99.90
51035;DHT22;37062;52.546;13.230;2023-05-15T03:20:27;13.70;99.90
51035;DHT22;37062;52.546;13.230;2023-05-15T03:22:56;13.80;99.90
51035;DHT22;37062;52.546;13.230;2023-05-15T03:25:24;13.80;99.90
51035;DHT22;37062;52.546;13.230;2023-05-15T03:27:53;13.80;99.90
51035;DHT22;37062;52.546;13.230;2023-05-15T03:30:21;13.80;99.90
51035;DHT22;37062;52.546;13.230;2023-05-15T03:32:49;13.80;99.90
51035;DHT22;37062;52.546;13.230;2023-05-15T03:35:17;13.80;99.90
51035;DHT22;37062;52.546;13.230;2023-05-15T03:37:47;13.80;99.90
51035;DHT22;37062;52.546;13.230;2023-05-15T03:40:15;13.80;99.90
51035;DHT22;37062;52.546;13.230;2023-05-15T03:42:44;13.80;99.90
51035;DHT22;37062;52.546;13.230;2023-05-15T03:45:12;13.80;99.90
51035;DHT22;37062;52.546;13.230;2023-05-15T03:47:40;13.80;99.90
51035;DHT22;37062;52.546;13.230;2023-05-15T03:50:09;13.80;99.90
51035;DHT22;37062;52.546;13.230;2023-05-15T03:52:38;13.90;99.90
51035;DHT22;37062;52.546;13.230;2023-05-15T03:55:09;13.90;99.90
51035;DHT22;37062;52.546;13.230;2023-05-15T03:57:38;13.90;99.90
51035;DHT22;37062;52.546;13.230;2023-05-15T04:00:08;13.90;99.90
51035;DHT22;37062;52.546;13.230;2023-05-15T04:02:40;14.00;99.90
51035;DHT22;37062;52.546;13.230;2023-05-15T04:05:09;14.10;99.90
51035;DHT22;37062;52.546;13.230;2023-05-15T04:07:37;14.30;99.90
51035;DHT22;37062;52.546;13.230;2023-05-15T04:10:06;14.50;99.90
51035;DHT22;37062;52.546;13.230;2023-05-15T04:12:36;14.70;99.90
51035;DHT22;37062;52.546;13.230;2023-05-15T04:15:15;14.90;99.90
51035;DHT22;37062;52.546;13.230;2023-05-15T04:17:46;15.20;99.90
51035;DHT22;37062;52.546;13.230;2023-05-15T04:20:16;15.40;99.90
51035;DHT22;37062;52.546;13.230;2023-05-15T04:22:45;15.70;99.90
51035;DHT22;37062;52.546;13.230;2023-05-15T04:25:13;15.80;99.90
51035;DHT22;37062;52.546;13.230;2023-05-15T04:27:43;16.00;99.90
51035;DHT22;37062;52.546;13.230;2023-05-15T04:30:12;16.20;99.90
51035;DHT22;37062;52.546;13.230;2023-05-15T04:32:41;16.50;99.90
51035;DHT22;37062;52.546;13.230;2023-05-15T04:35:09;16.80;99.90
51035;DHT22;37062;52.546;13.230;2023-05-15T04:37:40;17.20;99.90
51035;DHT22;37062;52.546;13.230;2023-05-15T04:40:09;17.70;99.90
51035;DHT22;37062;52.546;13.230;2023-05-15T04:42:38;18.00;99.90
51035;DHT22;37062;52.546;13.230;2023-05-15T04:45:08;18.20;99.90
51035;DHT22;37062;52.546;13.230;2023-05-15T04:47:36;18.30;99.90
51035;DHT22;37062;52.546;13.230;2023-05-15T04:50:05;18.30;99.90
51035;DHT22;37062;52.546;13.230;2023-05-15T04:52:35;18.30;99.90
51035;DHT22;37062;52.546;13.230;2023-05-15T04:55:03;18.20;99.90
51035;DHT22;37062;52.546;13.230;2023-05-15T04:57:32;18.10;99.90
51035;DHT22;37062;52.546;13.230;2023-05-15T05:00:00;18.10;99.90
51035;DHT22;37062;52.546;13.230;2023-05-15T05:02:32;18.10;99.90
51035;DHT22;37062;52.546;13.230;2023-05-15T05:05:01;18.00;99.90
51035;DHT22;37062;52.546;13.230;2023-05-15T05:07:29;18.00;99.90
51035;DHT22;37062;52.546;13.230;2023-05-15T05:09:57;18.00;99.90
51035;DHT22;37062;52.546;13.230;2023-05-15T05:12:25;18.00;99.90
51035;DHT22;37062;52.546;13.230;2023-05-15T05:14:54;17.90;99.90
51035;DHT22;37062;52.546;13.230;2023-05-15T05:17:22;17.80;99.90
51035;DHT22;37062;52.546;13.230;2023-05-15T05:19:52;17.70;99.90
51035;DHT22;37062;52.546;13.230;2023-05-15T05:22:20;17.70;99.90
51035;DHT22;37062;52.546;13.230;2023-05-15T05:24:48;17.70;99.90
51035;DHT22;37062;52.546;13.230;2023-05-15T05:27:17;17.70;99.90
51035;DHT22;37062;52.546;13.230;2023-05-15T05:29:46;17.80;99.90
51035;DHT22;37062;52.546;13.230;2023-05-15T05:32:14;17.90;99.90
51035;DHT22;37062;52.546;13.230;2023-05-15T05:34:42;18.20;99.90
51035;DHT22;37062;52.546;13.230;2023-05-15T05:37:11;18.60;99.90
51035;DHT22;37062;52.546;13.230;2023-05-15T05:39:40;19.00;99.90
51035;DHT22;37062;52.546;13.230;2023-05-15T05:42:08;19.30;99.90
51035;DHT22;37062;52.546;13.230;2023-05-15T05:44:36;19.60;99.90
51035;DHT22;37062;52.546;13.230;2023-05-15T05:47:04;20.00;99.90
51035;DHT22;37062;52.546;13.230;2023-05-15T05:49:32;20.20;99.90
51035;DHT22;37062;52.546;13.230;2023-05-15T05:52:05;20.40;99.90
51035;DHT22;37062;52.546;13.230;2023-05-15T05:54:37;20.60;99.90
51035;DHT22;37062;52.546;13.230;2023-05-15T05:57:08;20.90;99.90
51035;DHT22;37062;52.546;13.230;2023-05-15T05:59:36;21.30;99.90
51035;DHT22;37062;52.546;13.230;2023-05-15T06:02:05;21.50;99.90
51035;DHT22;37062;52.546;13.230;2023-05-15T06:04:34;21.60;99.90
51035;DHT22;37062;52.546;13.230;2023-05-15T06:07:02;21.90;99.90
51035;DHT22;37062;52.546;13.230;2023-05-15T06:09:31;22.10;99.90
51035;DHT22;37062;52.546;13.230;2023-05-15T06:12:01;22.00;99.90
51035;DHT22;37062;52.546;13.230;2023-05-15T06:14:30;22.10;99.90
51035;DHT22;37062;52.546;13.230;2023-05-15T06:16:59;22.20;99.90
51035;DHT22;37062;52.546;13.230;2023-05-15T06:19:27;22.50;99.90
51035;DHT22;37062;52.546;13.230;2023-05-15T06:21:56;22.60;99.90
51035;DHT22;37062;52.546;13.230;2023-05-15T06:24:24;22.90;99.90
51035;DHT22;37062;52.546;13.230;2023-05-15T06:26:52;22.90;99.90
51035;DHT22;37062;52.546;13.230;2023-05-15T06:29:22;22.90;99.90
51035;DHT22;37062;52.546;13.230;2023-05-15T06:31:50;23.00;99.90
51035;DHT22;37062;52.546;13.230;2023-05-15T06:34:19;23.00;99.90
51035;DHT22;37062;52.546;13.230;2023-05-15T06:36:47;23.30;99.90
51035;DHT22;37062;52.546;13.230;2023-05-15T06:39:15;23.60;99.90
51035;DHT22;37062;52.546;13.230;2023-05-15T06:41:43;23.80;99.90
51035;DHT22;37062;52.546;13.230;2023-05-15T06:44:11;23.70;99.90
51035;DHT22;37062;52.546;13.230;2023-05-15T06:46:41;23.70;99.90
51035;DHT22;37062;52.546;13.230;2023-05-15T06:49:10;23.70;99.90
51035;DHT22;37062;52.546;13.230;2023-05-15T06:51:38;24.00;99.90
51035;DHT22;37062;52.546;13.230;2023-05-15T06:54:06;24.40;99.90
51035;DHT22;37062;52.546;13.230;2023-05-15T06:56:35;24.60;99.90
51035;DHT22;37062;52.546;13.230;2023-05-15T06:59:03;24.50;99.90
51035;DHT22;37062;52.546;13.230;2023-05-15T07:01:31;24.20;99.90
51035;DHT22;37062;52.546;13.230;2023-05-15T07:04:01;24.40;99.90
51035;DHT22;37062;52.546;13.230;2023-05-15T07:06:32;24.60;99.90
51035;DHT22;37062;52.546;13.230;2023-05-15T07:09:02;24.70;99.90
51035;DHT22;37062;52.546;13.230;2023-05-15T07:11:30;25.10;99.90
51035;DHT22;37062;52.546;13.230;2023-05-15T07:14:03;25.30;99.90
51035;DHT22;37062;52.546;13.230;2023-05-15T07:16:31;25.50;99.90
51035;DHT22;37062;52.546;13.230;2023-05-15T07:19:01;25.70;99.90
51035;DHT22;37062;52.546;13.230;2023-05-15T07:21:29;25.70;99.90
51035;DHT22;37062;52.546;13.230;2023-05-15T07:23:58;25.70;99.90
51035;DHT22;37062;52.546;13.230;2023-05-15T07:26:26;25.80;99.90
51035;DHT22;37062;52.546;13.230;2023-05-15T07:29:02;25.70;99.90
51035;DHT22;37062;52.546;13.230;2023-05-15T07:31:31;25.60;99.90
51035;DHT22;37062;52.546;13.230;2023-05-15T07:34:00;25.30;99.90
51035;DHT22;37062;52.546;13.230;2023-05-15T07:36:29;25.10;99.90
51035;DHT22;37062;52.546;13.230;2023-05-15T07:38:57;25.10;99.90
51035;DHT22;37062;52.546;13.230;2023-05-15T07:41:25;25.10;99.90
51035;DHT22;37062;52.546;13.230;2023-05-15T07:43:54;24.90;99.90
51035;DHT22;37062;52.546;13.230;2023-05-15T07:46:22;24.90;99.90
51035;DHT22;37062;52.546;13.230;2023-05-15T07:48:50;25.00;99.90
51035;DHT22;37062;52.546;13.230;2023-05-15T07:51:20;24.90;99.90
51035;DHT22;37062;52.546;13.230;2023-05-15T07:53:48;24.70;99.90
51035;DHT22;37062;52.546;13.230;2023-05-15T07:56:17;24.40;99.90
51035;DHT22;37062;52.546;13.230;2023-05-15T07:58:45;24.00;99.90
51035;DHT22;37062;52.546;13.230;2023-05-15T08:01:13;23.90;99.90
51035;DHT22;37062;52.546;13.230;2023-05-15T08:03:41;23.80;99.90
51035;DHT22;37062;52.546;13.230;2023-05-15T08:06:10;23.60;99.90
51035;DHT22;37062;52.546;13.230;2023-05-15T08:08:39;23.40;99.90
51035;DHT22;37062;52.546;13.230;2023-05-15T08:11:08;23.30;99.90
51035;DHT22;37062;52.546;13.230;2023-05-15T08:13:36;23.40;99.90
51035;DHT22;37062;52.546;13.230;2023-05-15T08:16:04;23.60;99.90
51035;DHT22;37062;52.546;13.230;2023-05-15T08:18:33;23.60;99.90
51035;DHT22;37062;52.546;13.230;2023-05-15T08:21:01;23.40;99.90
51035;DHT22;37062;52.546;13.230;2023-05-15T08:23:30;23.50;99.90
51035;DHT22;37062;52.546;13.230;2023-05-15T08:26:00;23.40;99.90
51035;DHT22;37062;52.546;13.230;2023-05-15T08:28:28;23.30;99.90
51035;DHT22;37062;52.546;13.230;2023-05-15T08:30:56;23.20;99.90
51035;DHT22;37062;52.546;13.230;2023-05-15T08:33:24;23.30;99.90
51035;DHT22;37062;52.546;13.230;2023-05-15T08:35:53;23.20;99.90
51035;DHT22;37062;52.546;13.230;2023-05-15T08:38:21;23.10;99.90
51035;DHT22;37062;52.546;13.230;2023-05-15T08:40:52;22.80;99.90
51035;DHT22;37062;52.546;13.230;2023-05-15T08:43:22;22.60;99.90
51035;DHT22;37062;52.546;13.230;2023-05-15T08:45:53;22.50;99.90
51035;DHT22;37062;52.546;13.230;2023-05-15T08:48:24;22.50;99.90
51035;DHT22;37062;52.546;13.230;2023-05-15T08:50:55;22.30;99.90
51035;DHT22;37062;52.546;13.230;2023-05-15T08:53:24;22.30;99.90
51035;DHT22;37062;52.546;13.230;2023-05-15T08:55:52;22.20;99.90
51035;DHT22;37062;52.546;13.230;2023-05-15T08:58:22;22.20;99.90
51035;DHT22;37062;52.546;13.230;2023-05-15T09:00:53;22.10;99.90
51035;DHT22;37062;52.546;13.230;2023-05-15T09:03:21;22.10;99.90
51035;DHT22;37062;52.546;13.230;2023-05-15T09:05:51;22.10;99.90
51035;DHT22;37062;52.546;13.230;2023-05-15T09:08:21;22.00;99.90
51035;DHT22;37062;52.546;13.230;2023-05-15T09:10:52;22.00;99.90
51035;DHT22;37062;52.546;13.230;2023-05-15T09:13:22;22.00;99.90
51035;DHT22;37062;52.546;13.230;2023-05-15T09:15:50;22.10;99.90
51035;DHT22;37062;52.546;13.230;2023-05-15T09:18:19;22.20;99.90
51035;DHT22;37062;52.546;13.230;2023-05-15T09:20:49;22.30;99.90
51035;DHT22;37062;52.546;13.230;2023-05-15T09:23:23;22.30;99.90
51035;DHT22;37062;52.546;13.230;2023-05-15T09:25:52;22.30;99.90
51035;DHT22;37062;52.546;13.230;2023-05-15T09:28:29;22.50;99.90
51035;DHT22;37062;52.546;13.230;2023-05-15T09:30:59;22.60;99.90
51035;DHT22;37062;52.546;13.230;2023-05-15T09:33:31;22.70;99.90
51035;DHT22;37062;52.546;13.230;2023-05-15T09:36:00;22.90;99.90
51035;DHT22;37062;52.546;13.230;2023-05-15T09:38:31;23.00;99.90
51035;DHT22;37062;52.546;13.230;2023-05-15T09:41:01;23.00;99.90
51035;DHT22;37062;52.546;13.230;2023-05-15T09:43:35;23.00;99.90
51035;DHT22;37062;52.546;13.230;2023-05-15T09:46:04;23.10;99.90
51035;DHT22;37062;52.546;13.230;2023-05-15T09:48:34;23.00;99.90
51035;DHT22;37062;52.546;13.230;2023-05-15T09:51:04;23.00;99.90
51035;DHT22;37062;52.546;13.230;2023-05-15T09:53:34;23.00;99.90
51035;DHT22;37062;52.546;13.230;2023-05-15T09:56:04;23.20;99.90
51035;DHT22;37062;52.546;13.230;2023-05-15T09:58:34;23.30;99.90
51035;DHT22;37062;52.546;13.230;2023-05-15T10:01:02;23.60;99.90
51035;DHT22;37062;52.546;13.230;2023-05-15T10:03:39;23.80;99.90
51035;DHT22;37062;52.546;13.230;2023-05-15T10:06:17;24.00;99.90
51035;DHT22;37062;52.546;13.230;2023-05-15T10:08:50;24.00;99.90
51035;DHT22;37062;52.546;13.230;2023-05-15T10:11:19;24.00;99.90
51035;DHT22;37062;52.546;13.230;2023-05-15T10:13:49;23.90;99.90
51035;DHT22;37062;52.546;13.230;2023-05-15T10:16:19;23.70;99.90
51035;DHT22;37062;52.546;13.230;2023-05-15T10:18:50;23.80;99.90
51035;DHT22;37062;52.546;13.230;2023-05-15T10:21:19;23.80;99.90
51035;DHT22;37062;52.546;13.230;2023-05-15T10:23:49;23.80;99.90
51035;DHT22;37062;52.546;13.230;2023-05-15T10:26:22;23.90;99.90
51035;DHT22;37062;52.546;13.230;2023-05-15T10:28:52;23.80;99.90
51035;DHT22;37062;52.546;13.230;2023-05-15T10:31:22;23.60;99.90
51035;DHT22;37062;52.546;13.230;2023-05-15T10:33:52;23.60;99.90
51035;DHT22;37062;52.546;13.230;2023-05-15T10:36:22;23.70;99.90
51035;DHT22;37062;52.546;13.230;2023-05-15T10:38:51;23.70;99.90
51035;DHT22;37062;52.546;13.230;2023-05-15T10:41:20;23.40;99.90
51035;DHT22;37062;52.546;13.230;2023-05-15T10:43:54;23.20;99.90
51035;DHT22;37062;52.546;13.230;2023-05-15T10:46:22;23.00;99.90
51035;DHT22;37062;52.546;13.230;2023-05-15T10:48:51;23.10;99.90
51035;DHT22;37062;52.546;13.230;2023-05-15T10:51:24;22.80;99.90
51035;DHT22;37062;52.546;13.230;2023-05-15T10:53:52;22.60;99.90
51035;DHT22;37062;52.546;13.230;2023-05-15T10:56:25;22.50;99.90
51035;DHT22;37062;52.546;13.230;2023-05-15T10:58:55;22.40;99.90
51035;DHT22;37062;52.546;13.230;2023-05-15T11:01:25;22.30;99.90
51035;DHT22;37062;52.546;13.230;2023-05-15T11:04:04;22.40;99.90
51035;DHT22;37062;52.546;13.230;2023-05-15T11:06:34;22.50;99.90
51035;DHT22;37062;52.546;13.230;2023-05-15T11:09:36;22.70;99.90
51035;DHT22;37062;52.546;13.230;2023-05-15T11:12:07;22.80;99.90
51035;DHT22;37062;52.546;13.230;2023-05-15T11:14:38;22.80;99.90
51035;DHT22;37062;52.546;13.230;2023-05-15T11:17:08;22.80;99.90
51035;DHT22;37062;52.546;13.230;2023-05-15T11:19:55;23.10;99.90
51035;DHT22;37062;52.546;13.230;2023-05-15T11:22:29;23.20;99.90
51035;DHT22;37062;52.546;13.230;2023-05-15T11:25:00;23.20;99.90
51035;DHT22;37062;52.546;13.230;2023-05-15T11:27:30;23.30;99.90
51035;DHT22;37062;52.546;13.230;2023-05-15T11:30:04;23.40;99.90
51035;DHT22;37062;52.546;13.230;2023-05-15T11:32:49;23.60;99.90
51035;DHT22;37062;52.546;13.230;2023-05-15T11:35:20;23.70;99.90
51035;DHT22;37062;52.546;13.230;2023-05-15T11:37:50;23.50;99.90
51035;DHT22;37062;52.546;13.230;2023-05-15T11:40:23;23.70;99.90
51035;DHT22;37062;52.546;13.230;2023-05-15T11:43:06;23.80;99.90
51035;DHT22;37062;52.546;13.230;2023-05-15T11:45:38;23.90;99.90
51035;DHT22;37062;52.546;13.230;2023-05-15T11:48:10;23.90;99.90
51035;DHT22;37062;52.546;13.230;2023-05-15T11:50:40;23.90;99.90
51035;DHT22;37062;52.546;13.230;2023-05-15T11:53:11;23.80;99.90
51035;DHT22;37062;52.546;13.230;2023-05-15T11:55:40;23.80;99.90
51035;DHT22;37062;52.546;13.230;2023-05-15T11:58:13;23.80;99.90
51035;DHT22;37062;52.546;13.230;2023-05-15T12:00:45;23.80;99.90
51035;DHT22;37062;52.546;13.230;2023-05-15T12:03:14;23.90;99.90
51035;DHT22;37062;52.546;13.230;2023-05-15T12:05:43;24.10;99.90
51035;DHT22;37062;52.546;13.230;2023-05-15T12:08:24;24.30;99.90
51035;DHT22;37062;52.546;13.230;2023-05-15T12:10:58;24.30;99.90
51035;DHT22;37062;52.546;13.230;2023-05-15T12:13:26;24.30;99.90
51035;DHT22;37062;52.546;13.230;2023-05-15T12:15:57;24.20;99.90
51035;DHT22;37062;52.546;13.230;2023-05-15T12:18:25;24.10;99.90
51035;DHT22;37062;52.546;13.230;2023-05-15T12:20:54;23.90;99.90
51035;DHT22;37062;52.546;13.230;2023-05-15T12:23:24;24.00;99.90
51035;DHT22;37062;52.546;13.230;2023-05-15T12:25:55;23.90;99.90
51035;DHT22;37062;52.546;13.230;2023-05-15T12:28:25;23.90;99.90
51035;DHT22;37062;52.546;13.230;2023-05-15T12:30:55;23.90;99.90
51035;DHT22;37062;52.546;13.230;2023-05-15T12:33:24;24.00;99.90
51035;DHT22;37062;52.546;13.230;2023-05-15T12:35:53;24.00;99.90
51035;DHT22;37062;52.546;13.230;2023-05-15T12:38:27;24.10;99.90
51035;DHT22;37062;52.546;13.230;2023-05-15T12:40:56;24.20;99.90
51035;DHT22;37062;52.546;13.230;2023-05-15T12:43:25;24.30;99.90
51035;DHT22;37062;52.546;13.230;2023-05-15T12:45:55;24.30;99.90
51035;DHT22;37062;52.546;13.230;2023-05-15T12:48:28;24.30;99.90
51035;DHT22;37062;52.546;13.230;2023-05-15T12:51:04;24.20;99.90
51035;DHT22;37062;52.546;13.230;2023-05-15T12:53:44;24.10;99.90
51035;DHT22;37062;52.546;13.230;2023-05-15T12:57:41;24.00;99.90
51035;DHT22;37062;52.546;13.230;2023-05-15T13:00:51;23.80;99.90
51035;DHT22;37062;52.546;13.230;2023-05-15T13:03:23;23.80;99.90
51035;DHT22;37062;52.546;13.230;2023-05-15T13:05:53;23.80;99.90
51035;DHT22;37062;52.546;13.230;2023-05-15T13:08:22;23.70;99.90
51035;DHT22;37062;52.546;13.230;2023-05-15T13:10:55;23.60;99.90
51035;DHT22;37062;52.546;13.230;2023-05-15T13:13:27;23.70;99.90
51035;DHT22;37062;52.546;13.230;2023-05-15T13:16:05;23.70;99.90
51035;DHT22;37062;52.546;13.230;2023-05-15T13:18:45;23.90;99.90
51035;DHT22;37062;52.546;13.230;2023-05-15T13:21:14;24.00;99.90
51035;DHT22;37062;52.546;13.230;2023-05-15T13:23:42;24.20;99.90
51035;DHT22;37062;52.546;13.230;2023-05-15T13:26:10;24.30;99.90
51035;DHT22;37062;52.546;13.230;2023-05-15T13:28:38;24.40;99.90
51035;DHT22;37062;52.546;13.230;2023-05-15T13:31:07;24.60;99.90
51035;DHT22;37062;52.546;13.230;2023-05-15T13:33:35;24.80;99.90
51035;DHT22;37062;52.546;13.230;2023-05-15T13:36:05;24.90;99.90
51035;DHT22;37062;52.546;13.230;2023-05-15T13:38:34;25.10;99.90
51035;DHT22;37062;52.546;13.230;2023-05-15T13:41:03;25.20;99.90
51035;DHT22;37062;52.546;13.230;2023-05-15T13:43:31;25.30;99.90
51035;DHT22;37062;52.546;13.230;2023-05-15T13:46:00;25.00;99.90
51035;DHT22;37062;52.546;13.230;2023-05-15T13:48:29;24.90;99.90
51035;DHT22;37062;52.546;13.230;2023-05-15T13:50:57;24.90;99.90
51035;DHT22;37062;52.546;13.230;2023-05-15T13:53:27;23.90;99.90
51035;DHT22;37062;52.546;13.230;2023-05-15T13:55:55;22.60;99.90
51035;DHT22;37062;52.546;13.230;2023-05-15T13:58:25;21.50;99.90
51035;DHT22;37062;52.546;13.230;2023-05-15T14:00:53;20.80;99.90
51035;DHT22;37062;52.546;13.230;2023-05-15T14:03:21;20.50;99.90
51035;DHT22;37062;52.546;13.230;2023-05-15T14:05:50;20.20;99.90
51035;DHT22;37062;52.546;13.230;2023-05-15T14:08:19;20.20;99.90
51035;DHT22;37062;52.546;13.230;2023-05-15T14:10:49;20.10;99.90
51035;DHT22;37062;52.546;13.230;2023-05-15T14:13:20;19.90;99.90
51035;DHT22;37062;52.546;13.230;2023-05-15T14:15:49;20.00;99.90
51035;DHT22;37062;52.546;13.230;2023-05-15T14:18:18;19.90;99.90
51035;DHT22;37062;52.546;13.230;2023-05-15T14:20:46;19.80;99.90
51035;DHT22;37062;52.546;13.230;2023-05-15T14:23:14;19.80;99.90
51035;DHT22;37062;52.546;13.230;2023-05-15T14:25:42;19.90;99.90
51035;DHT22;37062;52.546;13.230;2023-05-15T14:28:12;19.90;99.90
51035;DHT22;37062;52.546;13.230;2023-05-15T14:30:40;19.90;99.90
51035;DHT22;37062;52.546;13.230;2023-05-15T14:33:09;19.90;99.90
51035;DHT22;37062;52.546;13.230;2023-05-15T14:35:37;19.70;99.90
51035;DHT22;37062;52.546;13.230;2023-05-15T14:38:05;19.80;99.90
51035;DHT22;37062;52.546;13.230;2023-05-15T14:40:33;20.10;99.90
51035;DHT22;37062;52.546;13.230;2023-05-15T14:43:02;20.20;99.90
51035;DHT22;37062;52.546;13.230;2023-05-15T14:45:31;20.30;99.90
51035;DHT22;37062;52.546;13.230;2023-05-15T14:48:00;20.40;99.90
51035;DHT22;37062;52.546;13.230;2023-05-15T14:50:28;20.30;99.90
51035;DHT22;37062;52.546;13.230;2023-05-15T14:52:56;20.20;99.90
51035;DHT22;37062;52.546;13.230;2023-05-15T14:55:24;20.20;99.90
51035;DHT22;37062;52.546;13.230;2023-05-15T14:57:52;20.10;99.90
51035;DHT22;37062;52.546;13.230;2023-05-15T15:00:21;20.10;99.90
51035;DHT22;37062;52.546;13.230;2023-05-15T15:02:51;20.10;99.90
51035;DHT22;37062;52.546;13.230;2023-05-15T15:05:19;20.20;99.90
51035;DHT22;37062;52.546;13.230;2023-05-15T15:07:59;20.40;99.90
51035;DHT22;37062;52.546;13.230;2023-05-15T15:10:28;20.20;99.90
51035;DHT22;37062;52.546;13.230;2023-05-15T15:12:56;19.90;99.90
51035;DHT22;37062;52.546;13.230;2023-05-15T15:15:26;19.80;99.90
51035;DHT22;37062;52.546;13.230;2023-05-15T15:17:56;19.80;99.90
51035;DHT22;37062;52.546;13.230;2023-05-15T15:20:25;19.80;99.90
51035;DHT22;37062;52.546;13.230;2023-05-15T15:22:55;19.80;99.90
51035;DHT22;37062;52.546;13.230;2023-05-15T15:25:23;20.00;99.90
51035;DHT22;37062;52.546;13.230;2023-05-15T15:27:52;20.20;99.90
51035;DHT22;37062;52.546;13.230;2023-05-15T15:30:20;20.20;99.90
51035;DHT22;37062;52.546;13.230;2023-05-15T15:32:49;20.20;99.90
51035;DHT22;37062;52.546;13.230;2023-05-15T15:35:19;20.10;99.90
51035;DHT22;37062;52.546;13.230;2023-05-15T15:37:47;19.90;99.90